Flight Track Log - Related Links

Times and Time Zones

All times are in EDT time to prevent confusion due to time zone crossing. See the N469S flight status page for this flight to view local times or setup timezone preferences in your user account.

Time Position Orientation Groundspeed Altitude Reporting Facility
EDT Latitude Longitude Course Direction KTS MPH feet Rate Location/Type
Mon 06:29:43 AM 40.9986 -85.8256 182° South 187 215 6,600  Level Chicago Center
Mon 06:30:43 AM 40.9461 -85.8281 182° South 190 219 6,600 -50 Level Chicago Center
Mon 06:31:44 AM 40.8931 -85.8322 183° South 191 220 6,500  Descending Chicago Center
Mon 06:32:44 AM 40.8394 -85.8358 183° South 193 222 6,600 49 Climbing Chicago Center
Mon 06:33:46 AM 40.7858 -85.8397 183° South 192 221 6,600  Level Chicago Center
Mon 06:34:00 AM 41.2569 -85.8408 182° South  Level Estimated
Mon 06:34:45 AM 40.7336 -85.8428 183° South 190 219 6,600  Level Chicago Center
Mon 06:35:46 AM 40.6797 -85.8489 185° South 192 221 6,600  Level Chicago Center
Mon 06:36:46 AM 40.6253 -85.8514 182° South 195 224 6,600  Level Chicago Center
Mon 06:37:47 AM 40.5739 -85.8550 183° South 188 216 6,600  Level Chicago Center
Mon 06:38:47 AM 40.5197 -85.8572 182° South 192 221 6,600  Level Chicago Center
Mon 06:39:48 AM 40.4647 -85.8619 184° South 197 227 6,600  Level Chicago Center
Mon 06:40:49 AM 40.4003 -85.8669 183° South 194 223 6,600  Level Chicago Center
Mon 06:41:49 AM 40.3469 -85.8694 182° South 192 221 6,600 -50 Level Chicago Center
Mon 06:42:50 AM 40.2931 -85.8692 180° South 193 222 6,500 -496 Descending Chicago Center
Mon 06:43:50 AM 40.2347 -85.8731 183° South 201 231 5,600 -893 Descending Chicago Center
Mon 06:44:51 AM 40.1753 -85.8742 181° South 209 241 4,700 -893 Descending Chicago Center
Mon 06:45:51 AM 40.1186 -85.8808 185° South 208 239 3,800 -955 Descending Chicago Center
Mon 06:46:19 AM 40.1000 -85.8833 186° South 200 230 3,300 -1,071 Descending Indianapolis TRACON
Mon 06:48:00 AM 40.0407 -85.8833 180° South  Level FlightAware Approximate
Mon 06:55:00 AM 39.8435 -85.8971 180° South  Level Estimated
Mon 06:56:00 AM 39.8435 -85.8971 180° South  Level Estimated

Login

Don't have an account? Register now (free) for customized features, flight alerts, and more!